Aubrey, Texas
Current Conditions -  °F | °C
As of 12:15 PM on Saturday 20 Dec 2014 (Local Time) from KDTO Reporting Station
Haze Haze  
Wind Chill: 44°   Ceiling: 1100
Heat Index: 44°   Visibility: 4mi
Dew Point: 41°   Wind: 3mph
Humidity: 89%   Direction: 340°NNW
Pressure: 30.24"   Gusts: NA
Location:  33.3°N, 96.99°W
Report Text: KDTO 201815Z 34003KT 4SM BR FEW008 BKN011 OVC023 07/05 A3024 RMK AO2 T00670050
Loading
Personal Weather Stations






























Interactive Weather Map New forecast layout! Learn more

10-Day Weather Forecast

Advertisements
Track Severe Weather on mobile